Time;durP1;ratioP1;P1;durP2;ratioP2;P2;SDS_P1;SDS_P2;PMS_P1;PMS_P2;Temp;Humidity;BMP_temperature;BMP_pressure;BME280_temperature;BME280_humidity;BME280_pressure;Samples;Min_cycle;Max_cycle;Signal;HPM_P1;HPM_P2
2021/01/10 00:02:37;;;;;;;21.13;10.70;;;;;;;-0.19;66.95;99388.91;2178979;81;21422;-79
2021/01/10 00:05:38;;;;;;;15.73;8.70;;;;;;;-0.27;66.96;99391.39;2178863;81;21141;-78
2021/01/10 00:08:40;;;;;;;11.50;7.63;;;;;;;-0.30;67.07;99389.52;2178820;82;21144;-78
2021/01/10 00:11:42;;;;;;;15.73;8.67;;;;;;;-0.32;66.71;99389.81;2179205;81;21253;-79
2021/01/10 00:14:44;;;;;;;12.67;7.90;;;;;;;-0.39;66.79;99385.09;2179100;82;21122;-77
2021/01/10 00:17:46;;;;;;;14.93;8.07;;;;;;;-0.40;66.64;99392.30;2178861;82;21137;-77
2021/01/10 00:20:47;;;;;;;14.07;8.77;;;;;;;-0.43;67.27;99398.52;2179792;82;21154;-77
2021/01/10 00:23:48;;;;;;;17.40;10.43;;;;;;;-0.44;67.33;99397.63;2179245;81;21280;-77
2021/01/10 00:26:49;;;;;;;18.63;9.10;;;;;;;-0.43;67.76;99403.64;2163151;81;21312;-77
2021/01/10 00:29:51;;;;;;;13.87;8.37;;;;;;;-0.42;67.58;99400.28;2161580;81;21253;-77
2021/01/10 00:32:52;;;;;;;13.27;8.07;;;;;;;-0.45;67.51;99399.70;2161456;82;21285;-76
2021/01/10 00:35:53;;;;;;;17.97;10.53;;;;;;;-0.47;67.79;99399.11;2161543;82;21293;-78
2021/01/10 00:38:57;;;;;;;16.97;9.57;;;;;;;-0.47;68.03;99406.80;2161514;82;21253;-77
2021/01/10 00:41:58;;;;;;;16.30;10.57;;;;;;;-0.48;68.29;99406.31;2161805;82;21257;-78
2021/01/10 00:45:02;;;;;;;15.37;10.03;;;;;;;-0.49;68.46;99404.53;2161588;82;21545;-77
2021/01/10 00:48:03;;;;;;;17.37;10.00;;;;;;;-0.52;68.44;99407.79;2161585;82;21257;-77
2021/01/10 00:51:07;;;;;;;17.93;11.97;;;;;;;-0.53;68.82;99408.58;2161538;82;21547;-78
2021/01/10 00:54:08;;;;;;;20.50;11.80;;;;;;;-0.51;68.97;99409.56;2161788;82;21523;-76
2021/01/10 00:57:09;;;;;;;20.20;11.70;;;;;;;-0.51;69.10;99412.13;2161513;82;21272;-77
2021/01/10 01:00:10;;;;;;;19.70;11.77;;;;;;;-0.47;69.17;99419.63;2161449;82;21436;-77
2021/01/10 01:03:14;;;;;;;19.77;12.43;;;;;;;-0.49;69.21;99419.53;2161527;82;21559;-77
2021/01/10 01:06:15;;;;;;;73.20;41.33;;;;;;;-0.50;69.47;99419.03;2161842;82;21247;-81
2021/01/10 01:09:16;;;;;;;60.23;32.07;;;;;;;1.62;84.01;99416.44;2161364;82;21265;-78
2021/01/10 01:12:17;;;;;;;25.03;15.17;;;;;;;6.72;73.92;99403.13;2161767;82;21285;-78
2021/01/10 01:15:21;;;;;;;19.03;12.63;;;;;;;5.83;61.31;99397.97;2161414;82;21244;-77
2021/01/10 01:18:22;;;;;;;15.57;11.53;;;;;;;4.09;59.72;99413.73;2161445;82;21261;-76
2021/01/10 01:21:26;;;;;;;19.97;13.53;;;;;;;2.84;61.58;99417.91;2161606;82;21527;-78
2021/01/10 01:24:27;;;;;;;17.33;12.30;;;;;;;2.01;63.06;99423.33;2162437;82;21277;-77
2021/01/10 01:27:28;;;;;;;22.43;13.50;;;;;;;1.47;64.14;99419.44;2178684;81;21372;-77
2021/01/10 01:30:29;;;;;;;24.00;14.30;;;;;;;1.11;65.16;99422.97;2178827;81;21129;-79
2021/01/10 01:33:33;;;;;;;19.33;13.60;;;;;;;0.88;65.66;99423.31;2179111;82;21145;-77
2021/01/10 01:36:34;;;;;;;23.67;14.17;;;;;;;0.62;66.19;99427.77;2179136;82;21269;-79
2021/01/10 01:39:38;;;;;;;23.27;13.97;;;;;;;0.46;66.82;99431.48;2178943;81;21126;-78
2021/01/10 01:42:39;;;;;;;28.70;15.43;;;;;;;0.38;67.42;99429.25;2178101;82;21177;-78
2021/01/10 01:45:40;;;;;;;24.57;13.97;;;;;;;0.34;67.77;99428.58;2178906;81;21392;-77
2021/01/10 01:48:41;;;;;;;30.23;16.93;;;;;;;0.35;68.04;99430.34;2178697;81;21106;-77
2021/01/10 01:51:42;;;;;;;26.10;15.10;;;;;;;0.33;68.00;99426.41;2179143;81;21121;-78
2021/01/10 01:54:44;;;;;;;31.17;17.37;;;;;;;0.25;68.14;99424.66;2179143;82;21149;-77
2021/01/10 01:57:45;;;;;;;31.60;18.20;;;;;;;0.18;68.21;99425.07;2179013;81;21257;-77
2021/01/10 02:00:46;;;;;;;35.77;18.30;;;;;;;0.16;68.46;99424.09;2178875;81;21138;-79
2021/01/10 02:03:50;;;;;;;36.33;20.40;;;;;;;0.13;68.52;99423.91;2179078;82;21174;-77
2021/01/10 02:06:51;;;;;;;40.93;21.50;;;;;;;0.13;68.61;99429.03;2178875;82;21145;-77
2021/01/10 02:09:52;;;;;;;36.13;19.83;;;;;;;0.12;68.74;99419.56;2178819;81;21145;-77
2021/01/10 02:12:53;;;;;;;36.20;20.00;;;;;;;0.13;68.94;99426.86;2179115;81;21162;-78
2021/01/10 02:15:57;;;;;;;50.67;25.40;;;;;;;0.13;69.10;99430.32;2179011;82;21166;-77
2021/01/10 02:19:00;;;;;;;46.23;25.17;;;;;;;0.13;69.21;99427.75;2178769;82;21384;-77
2021/01/10 02:22:05;;;;;;;51.07;23.57;;;;;;;0.12;69.30;99434.08;2178953;82;21111;-76
2021/01/10 02:25:05;;;;;;;47.23;22.23;;;;;;;0.06;69.38;99434.58;2178786;81;21138;-77
2021/01/10 02:28:06;;;;;;;40.13;20.83;;;;;;;0.05;69.55;99430.23;2178776;81;21182;-77
2021/01/10 02:31:07;;;;;;;41.73;22.10;;;;;;;0.06;69.73;99432.02;2179020;82;21150;-80
2021/01/10 02:34:08;;;;;;;36.07;18.83;;;;;;;0.07;69.91;99429.94;2178844;81;21142;-77
2021/01/10 02:37:10;;;;;;;42.83;20.50;;;;;;;0.10;69.89;99435.66;2178890;82;21149;-77
2021/01/10 02:40:11;;;;;;;40.17;20.53;;;;;;;0.08;69.96;99433.00;2178785;81;21110;-78
2021/01/10 02:43:12;;;;;;;40.03;20.23;;;;;;;0.08;69.99;99441.09;2179046;81;21587;-77
2021/01/10 02:46:16;;;;;;;41.63;22.87;;;;;;;0.07;70.09;99436.75;2178985;82;21134;-77
2021/01/10 02:49:18;;;;;;;52.90;29.40;;;;;;;0.03;70.21;99438.64;2178798;82;21150;-80
2021/01/10 02:52:19;;;;;;;168.33;93.47;;;;;;;0.88;81.48;99436.16;2179216;82;21149;-77
2021/01/10 02:55:20;;;;;;;51.10;26.80;;;;;;;5.01;78.47;99425.20;2179114;82;21141;-78
2021/01/10 02:58:21;;;;;;;41.90;24.40;;;;;;;4.97;64.81;99425.89;2178905;81;21400;-78
2021/01/10 03:01:24;;;;;;;44.43;23.97;;;;;;;3.68;63.59;99424.30;2178921;81;21628;-78
2021/01/10 03:04:25;;;;;;;44.80;23.30;;;;;;;2.71;64.31;99427.99;2179176;82;21294;-78
2021/01/10 03:07:26;;;;;;;42.27;23.77;;;;;;;2.08;65.38;99431.88;2178867;81;21126;-77
2021/01/10 03:10:27;;;;;;;38.43;22.23;;;;;;;1.60;66.20;99434.77;2178694;81;21562;-78
2021/01/10 03:13:31;;;;;;;42.10;25.20;;;;;;;1.22;66.83;99438.63;2178816;81;21142;-77
2021/01/10 03:16:32;;;;;;;43.10;24.00;;;;;;;0.93;67.61;99438.21;2179040;81;21126;-77
2021/01/10 03:19:39;;;;;;;39.30;22.43;;;;;;;0.77;68.58;99441.03;2178853;81;21424;-77
2021/01/10 03:22:41;;;;;;;40.50;21.47;;;;;;;0.66;68.84;99441.68;2178649;82;21158;-77
2021/01/10 03:25:42;;;;;;;44.13;22.80;;;;;;;0.57;69.16;99433.02;2179018;81;21155;-78
2021/01/10 03:28:43;;;;;;;41.30;21.57;;;;;;;0.50;69.35;99433.45;2178723;81;21107;-78
2021/01/10 03:31:44;;;;;;;44.10;23.63;;;;;;;0.43;69.70;99435.16;2178905;81;21121;-79
2021/01/10 03:34:45;;;;;;;42.73;22.73;;;;;;;0.41;70.00;99430.33;2179064;81;21273;-78
2021/01/10 03:37:46;;;;;;;46.07;25.17;;;;;;;0.42;70.16;99428.64;2178100;82;21113;-76
2021/01/10 03:40:47;;;;;;;49.43;26.20;;;;;;;0.42;70.33;99428.25;2178269;81;21499;-77
2021/01/10 03:43:48;;;;;;;47.10;24.80;;;;;;;0.39;70.49;99427.17;2178144;81;21243;-77
2021/01/10 03:46:49;;;;;;;52.73;27.17;;;;;;;0.29;70.56;99427.89;2178118;81;21539;-77
2021/01/10 03:49:50;;;;;;;48.20;26.87;;;;;;;0.24;70.86;99429.70;2178077;81;21118;-77
2021/01/10 03:52:52;;;;;;;51.17;28.67;;;;;;;0.17;71.01;99421.13;2178621;81;21171;-77
2021/01/10 03:55:53;;;;;;;55.90;28.23;;;;;;;0.16;71.14;99421.52;2178843;81;21127;-78
2021/01/10 03:58:54;;;;;;;55.37;28.60;;;;;;;0.16;71.39;99427.05;2178668;81;21163;-77
2021/01/10 04:01:55;;;;;;;56.30;28.67;;;;;;;0.19;71.39;99428.52;2179041;81;21149;-77
2021/01/10 04:04:56;;;;;;;49.83;24.53;;;;;;;0.19;71.58;99434.95;2179043;81;21193;-77
2021/01/10 04:07:57;;;;;;;46.33;25.53;;;;;;;0.21;71.57;99424.38;2178968;81;21142;-77
2021/01/10 04:10:58;;;;;;;52.53;28.30;;;;;;;0.20;71.66;99425.16;2179241;81;21272;-77
2021/01/10 04:13:59;;;;;;;52.83;28.33;;;;;;;0.22;71.66;99430.00;2178961;81;21118;-77
2021/01/10 04:17:00;;;;;;;50.63;26.87;;;;;;;0.30;71.76;99433.92;2179036;81;21150;-77
2021/01/10 04:20:03;;;;;;;49.93;28.07;;;;;;;0.33;71.61;99429.37;2178934;81;21157;-79
2021/01/10 04:23:04;;;;;;;57.27;29.03;;;;;;;0.29;71.68;99433.03;2178924;81;21201;-78
2021/01/10 04:26:06;;;;;;;63.43;31.17;;;;;;;0.31;71.77;99435.70;2173061;81;21170;-77
2021/01/10 04:29:07;;;;;;;60.87;31.20;;;;;;;0.36;71.78;99434.30;2161254;82;21261;-77
2021/01/10 04:32:08;;;;;;;60.03;29.13;;;;;;;0.39;71.70;99431.91;2161338;82;21269;-76
2021/01/10 04:35:09;;;;;;;49.77;27.20;;;;;;;0.42;71.57;99442.38;2161743;82;21532;-78
2021/01/10 04:38:12;;;;;;;52.03;28.67;;;;;;;0.42;71.53;99443.66;2160966;82;21586;-77
2021/01/10 04:41:13;;;;;;;49.47;27.90;;;;;;;0.39;71.75;99440.91;2161221;82;21265;-78
2021/01/10 04:44:14;;;;;;;53.53;26.80;;;;;;;0.39;71.67;99438.73;2161601;82;21293;-78
2021/01/10 04:47:15;;;;;;;56.70;30.00;;;;;;;0.40;71.75;99442.67;2161182;82;21261;-77
2021/01/10 04:50:16;;;;;;;51.60;27.77;;;;;;;0.35;71.65;99440.23;2160724;82;21573;-78
2021/01/10 04:53:17;;;;;;;51.23;27.07;;;;;;;0.31;71.65;99432.73;2160766;82;21253;-78
2021/01/10 04:56:18;;;;;;;55.90;28.63;;;;;;;0.27;71.85;99436.30;2161393;82;21400;-77
2021/01/10 04:59:19;;;;;;;56.73;28.40;;;;;;;0.26;71.95;99438.38;2161368;82;21534;-77
2021/01/10 05:02:20;;;;;;;52.80;28.50;;;;;;;0.26;71.97;99437.09;2161148;82;21249;-77
2021/01/10 05:05:21;;;;;;;51.97;27.13;;;;;;;0.19;71.96;99437.52;2161405;82;21261;-78
2021/01/10 05:08:25;;;;;;;47.67;26.70;;;;;;;0.13;71.99;99441.88;2161553;82;21258;-76
2021/01/10 05:11:25;;;;;;;52.90;30.83;;;;;;;0.09;72.01;99441.58;2161664;82;21154;-78
2021/01/10 05:14:29;;;;;;;49.30;27.00;;;;;;;0.07;72.13;99440.61;2161443;82;21258;-78
2021/01/10 05:17:30;;;;;;;46.90;26.30;;;;;;;0.02;72.25;99442.00;2161450;82;21257;-77
2021/01/10 05:20:31;;;;;;;57.37;29.40;;;;;;;-0.03;72.45;99448.98;2161375;82;21257;-77
2021/01/10 05:23:32;;;;;;;51.53;27.67;;;;;;;-0.06;72.41;99448.78;2161830;82;21272;-79
2021/01/10 05:26:33;;;;;;;53.77;27.80;;;;;;;-0.07;72.51;99451.25;2168501;81;21261;-79
2021/01/10 05:29:34;;;;;;;55.63;30.40;;;;;;;-0.06;72.71;99453.92;2179024;81;21539;-78
2021/01/10 05:32:35;;;;;;;57.67;31.03;;;;;;;0.02;72.71;99455.72;2179042;81;21130;-79
2021/01/10 05:35:36;;;;;;;67.57;31.87;;;;;;;0.12;72.81;99459.75;2178867;81;21192;-77
2021/01/10 05:38:37;;;;;;;58.20;29.83;;;;;;;0.13;72.04;99463.69;2178649;81;21141;-78
2021/01/10 05:41:39;;;;;;;61.03;32.13;;;;;;;0.11;72.08;99466.56;2178013;82;21130;-79
2021/01/10 05:44:40;;;;;;;63.07;32.27;;;;;;;0.12;71.98;99466.16;2178436;81;21264;-79
2021/01/10 05:47:41;;;;;;;61.77;33.77;;;;;;;0.09;71.91;99468.54;2177783;81;21678;-78
2021/01/10 05:50:42;;;;;;;68.13;33.57;;;;;;;0.08;71.92;99475.75;2178061;81;21149;-78
2021/01/10 05:53:43;;;;;;;65.33;34.37;;;;;;;0.07;71.94;99477.83;2178043;81;21102;-77
2021/01/10 05:56:44;;;;;;;63.13;32.87;;;;;;;0.03;71.65;99479.31;2178212;81;21126;-78
2021/01/10 05:59:45;;;;;;;58.60;31.93;;;;;;;0.03;71.80;99482.27;2178481;81;21114;-78
2021/01/10 06:02:46;;;;;;;58.97;30.43;;;;;;;0.03;71.94;99486.12;2178382;81;21193;-78
2021/01/10 06:05:47;;;;;;;55.47;27.30;;;;;;;0.00;71.73;99486.81;2178680;82;21142;-79
2021/01/10 06:08:49;;;;;;;61.07;30.90;;;;;;;-0.06;71.81;99489.84;2178478;81;21122;-79
2021/01/10 06:11:50;;;;;;;53.30;26.83;;;;;;;-0.09;71.90;99498.63;2177983;81;21129;-79
2021/01/10 06:14:51;;;;;;;53.50;28.30;;;;;;;-0.07;72.05;99499.63;2178094;81;21130;-78
2021/01/10 06:17:52;;;;;;;46.93;27.57;;;;;;;-0.03;72.22;99500.70;2178125;81;21126;-78
2021/01/10 06:20:53;;;;;;;45.37;26.77;;;;;;;0.01;72.20;99499.25;2178143;81;21138;-78
2021/01/10 06:23:54;;;;;;;52.17;28.50;;;;;;;0.10;72.05;99503.69;2178334;81;21447;-79
2021/01/10 06:26:55;;;;;;;54.17;28.20;;;;;;;0.14;71.98;99509.11;2171467;81;21301;-78
2021/01/10 06:29:58;;;;;;;56.57;29.93;;;;;;;0.17;71.79;99507.13;2161437;82;21258;-79
2021/01/10 06:32:59;;;;;;;59.63;29.63;;;;;;;0.20;71.71;99509.89;2161079;82;21251;-79
2021/01/10 06:36:01;;;;;;;53.37;28.83;;;;;;;0.20;71.69;99504.75;2160873;82;21515;-79
2021/01/10 06:39:02;;;;;;;45.23;27.37;;;;;;;0.26;71.76;99510.27;2161464;82;21253;-79
2021/01/10 06:42:03;;;;;;;48.87;25.37;;;;;;;0.33;71.75;99506.41;2161782;82;21135;-78
2021/01/10 06:45:04;;;;;;;34.40;20.07;;;;;;;0.35;71.61;99509.56;2161618;82;21559;-78
2021/01/10 06:48:05;;;;;;;36.17;22.43;;;;;;;0.34;71.20;99510.36;2161518;82;21641;-78
2021/01/10 06:51:06;;;;;;;34.00;19.13;;;;;;;0.38;71.31;99515.28;2161610;82;21248;-78
2021/01/10 06:54:07;;;;;;;33.87;19.43;;;;;;;0.39;71.16;99514.50;2161610;82;21519;-79
2021/01/10 06:57:08;;;;;;;33.43;18.90;;;;;;;0.42;71.21;99513.40;2161134;82;21237;-79
2021/01/10 07:00:09;;;;;;;35.03;20.57;;;;;;;0.46;71.15;99514.97;2161367;82;21251;-80
2021/01/10 07:03:17;;;;;;;34.00;19.80;;;;;;;0.51;71.08;99517.82;2161562;82;21277;-79
2021/01/10 07:06:18;;;;;;;33.17;19.07;;;;;;;0.52;70.95;99518.31;2161604;82;21264;-78
2021/01/10 07:12:52;;;;;;;31.40;19.03;;;;;;;0.56;70.47;99521.16;2161734;82;21118;-82
2021/01/10 07:15:53;;;;;;;30.47;17.37;;;;;;;0.57;70.64;99513.06;2161970;82;21273;-79
2021/01/10 07:18:54;;;;;;;27.20;16.47;;;;;;;0.61;70.26;99515.02;2161463;82;21610;-79
2021/01/10 07:22:02;;;;;;;29.30;16.87;;;;;;;0.66;69.84;99514.91;2161600;82;21298;-79
2021/01/10 07:25:03;;;;;;;40.47;18.77;;;;;;;0.74;69.92;99513.69;2161710;82;21293;-79
2021/01/10 07:28:04;;;;;;;34.57;18.77;;;;;;;0.78;69.06;99514.38;2161784;81;21515;-79
2021/01/10 07:31:05;;;;;;;20.90;13.20;;;;;;;0.82;68.77;99518.90;2161525;82;21242;-79
2021/01/10 07:34:06;;;;;;;20.40;13.33;;;;;;;0.86;68.24;99526.00;2161778;82;21242;-79
2021/01/10 07:37:07;;;;;;;24.63;13.60;;;;;;;0.91;67.94;99530.16;2161505;82;21253;-80
2021/01/10 07:40:09;;;;;;;25.43;14.27;;;;;;;0.88;67.27;99529.98;2161114;82;21551;-80
2021/01/10 07:43:10;;;;;;;29.43;16.57;;;;;;;0.84;67.39;99534.02;2162012;82;21325;-82
2021/01/10 07:46:12;;;;;;;31.00;16.50;;;;;;;0.83;67.93;99537.78;2161918;82;21253;-80
2021/01/10 07:49:13;;;;;;;27.37;17.07;;;;;;;0.90;68.08;99543.81;2161434;82;21523;-79
2021/01/10 07:52:14;;;;;;;28.37;18.27;;;;;;;0.97;68.41;99549.81;2161526;82;21126;-81
2021/01/10 07:55:17;;;;;;;32.97;20.40;;;;;;;1.02;68.59;99548.41;2161859;82;21208;-79
2021/01/10 07:58:22;;;;;;;32.77;19.70;;;;;;;1.10;68.55;99552.73;2161886;82;21138;-78
2021/01/10 08:01:24;;;;;;;37.93;21.95;;;;;;;1.15;68.64;99558.64;2161159;82;21253;-80
2021/01/10 08:04:25;;;;;;;44.20;25.90;;;;;;;1.19;68.73;99559.70;2161458;82;21290;-79
2021/01/10 08:07:26;;;;;;;51.47;28.17;;;;;;;1.19;68.85;99563.16;2161538;82;21257;-80
2021/01/10 08:10:27;;;;;;;57.60;28.70;;;;;;;1.22;69.03;99567.20;2161775;82;21273;-79
2021/01/10 08:13:28;;;;;;;52.77;29.17;;;;;;;1.32;69.24;99569.04;2160890;82;21273;-79
2021/01/10 08:16:29;;;;;;;65.80;32.30;;;;;;;1.40;69.44;99569.09;2160929;82;21257;-80
2021/01/10 08:19:30;;;;;;;59.93;30.27;;;;;;;1.46;69.20;99566.48;2160869;82;21256;-79
2021/01/10 08:22:31;;;;;;;54.10;30.40;;;;;;;1.53;69.25;99571.59;2161484;82;21261;-80
2021/01/10 08:25:32;;;;;;;48.57;28.50;;;;;;;1.60;69.31;99566.00;2161846;82;21126;-79
2021/01/10 08:28:33;;;;;;;59.60;32.07;;;;;;;1.64;69.15;99564.09;2175349;81;21122;-79
2021/01/10 08:31:35;;;;;;;57.97;31.30;;;;;;;1.59;69.21;99565.52;2178961;81;21126;-79
2021/01/10 08:34:36;;;;;;;61.70;31.97;;;;;;;1.62;69.34;99571.24;2178950;81;21253;-80
2021/01/10 08:37:37;;;;;;;58.87;31.70;;;;;;;1.65;69.28;99567.56;2178879;81;21133;-79
2021/01/10 08:40:38;;;;;;;57.20;31.07;;;;;;;1.66;69.16;99572.80;2178506;81;21118;-80
2021/01/10 08:43:39;;;;;;;63.50;31.50;;;;;;;1.67;69.35;99570.71;2179208;82;21561;-83
2021/01/10 08:46:40;;;;;;;60.40;31.93;;;;;;;1.68;69.25;99571.20;2178498;81;21479;-79
2021/01/10 08:49:42;;;;;;;55.90;31.17;;;;;;;1.69;69.17;99566.54;2178754;81;21134;-79
2021/01/10 08:52:43;;;;;;;56.10;30.40;;;;;;;1.71;69.10;99572.66;2178539;81;21154;-80
2021/01/10 08:55:44;;;;;;;65.93;34.07;;;;;;;1.68;69.11;99577.63;2179271;81;21212;-79
2021/01/10 08:58:53;;;;;;;52.17;29.70;;;;;;;3.10;83.23;99564.97;2179233;81;21195;-79
2021/01/10 09:01:55;;;;;;;47.83;27.77;;;;;;;7.56;78.51;99556.31;2178933;82;21244;-80
2021/01/10 09:04:56;;;;;;;60.77;33.07;;;;;;;7.09;64.52;99554.61;2178504;82;21296;-81
2021/01/10 09:07:57;;;;;;;53.50;32.43;;;;;;;5.69;62.55;99561.91;2178940;81;21399;-80
2021/01/10 09:10:58;;;;;;;57.10;32.90;;;;;;;4.57;62.58;99558.60;2178953;81;21415;-80
2021/01/10 09:13:59;;;;;;;60.07;34.37;;;;;;;3.82;63.27;99568.28;2179382;81;21105;-80
2021/01/10 09:17:00;;;;;;;57.00;33.87;;;;;;;3.32;64.21;99569.14;2178894;81;21241;-78
2021/01/10 09:20:01;;;;;;;62.67;36.20;;;;;;;4.95;79.30;99569.82;2178755;81;21130;-78
2021/01/10 09:23:02;;;;;;;53.13;32.23;;;;;;;9.22;74.48;99562.12;2178421;81;21435;-78
2021/01/10 09:26:03;;;;;;;61.90;37.67;;;;;;;12.03;67.70;99555.25;2178985;81;21146;-79
2021/01/10 09:29:04;;;;;;;61.83;38.33;;;;;;;13.79;60.64;99550.34;2163793;81;21309;-78
2021/01/10 09:32:06;;;;;;;59.43;36.60;;;;;;;15.01;58.21;99550.06;2161677;82;21273;-78
2021/01/10 09:35:07;;;;;;;51.73;35.07;;;;;;;15.84;54.63;99539.02;2161666;82;21534;-79
2021/01/10 09:38:08;;;;;;;72.58;49.20;;;;;;;16.40;51.95;99537.28;2161632;82;21248;-79
2021/01/10 09:41:09;;;;;;;58.28;39.00;;;;;;;16.80;49.31;99543.44;2161425;82;21290;-79
2021/01/10 09:44:10;;;;;;;51.75;32.20;;;;;;;16.81;44.08;99544.75;2161821;82;21288;-80
2021/01/10 09:47:11;;;;;;;53.95;33.88;;;;;;;15.66;44.64;99541.61;2161202;82;21526;-79
2021/01/10 09:50:12;;;;;;;50.40;32.38;;;;;;;15.19;46.15;99542.26;2161752;82;21129;-79
2021/01/10 09:53:13;;;;;;;55.90;32.33;;;;;;;14.79;46.09;99545.12;2160706;82;21253;-80
2021/01/10 09:56:14;;;;;;;52.30;33.05;;;;;;;14.72;45.55;99543.72;2161216;82;21265;-80
2021/01/10 09:59:15;;;;;;;48.40;31.12;;;;;;;14.22;45.46;99540.27;2161290;82;21261;-80
2021/01/10 10:02:16;;;;;;;46.68;31.35;;;;;;;14.29;45.85;99539.45;2161248;82;21257;-81
2021/01/10 10:05:18;;;;;;;49.13;31.75;;;;;;;14.43;46.58;99536.53;2161747;82;21288;-80
2021/01/10 10:08:19;;;;;;;52.75;33.73;;;;;;;14.84;45.30;99535.95;2162081;82;21142;-78
2021/01/10 10:11:22;;;;;;;53.23;32.25;;;;;;;15.10;45.91;99540.91;2161696;82;21521;-80
2021/01/10 10:14:23;;;;;;;51.00;31.93;;;;;;;15.40;45.12;99541.90;2161681;82;21551;-80
2021/01/10 10:17:24;;;;;;;46.00;30.10;;;;;;;15.59;45.16;99535.41;2161370;82;21265;-80
2021/01/10 10:20:25;;;;;;;44.20;27.50;;;;;;;15.87;43.68;99538.14;2161871;82;21131;-80
2021/01/10 10:23:26;;;;;;;45.23;31.00;;;;;;;15.71;43.47;99531.97;2161879;82;21272;-80
2021/01/10 10:26:27;;;;;;;40.38;25.72;;;;;;;15.84;44.29;99531.55;2161540;82;21261;-81
2021/01/10 10:29:31;;;;;;;47.13;31.17;;;;;;;15.89;42.66;99532.44;2161315;82;21273;-79
2021/01/10 10:32:32;;;;;;;39.98;28.55;;;;;;;15.78;42.49;99527.16;2162006;82;21254;-81
2021/01/10 10:35:33;;;;;;;40.92;28.80;;;;;;;15.65;41.65;99534.59;2161892;82;21131;-80
2021/01/10 10:38:34;;;;;;;47.85;31.30;;;;;;;15.79;42.12;99534.61;2161148;82;21241;-80
2021/01/10 10:41:35;;;;;;;48.65;32.58;;;;;;;13.87;37.92;99541.23;2161608;82;21245;-80
2021/01/10 10:44:36;;;;;;;44.73;30.25;;;;;;;11.75;39.66;99539.03;2161821;82;21166;-80
2021/01/10 10:47:37;;;;;;;42.80;26.85;;;;;;;12.93;49.75;99540.52;2162492;82;21389;-81
2021/01/10 10:50:39;;;;;;;42.88;27.32;;;;;;;15.52;46.59;99524.84;2161341;82;21123;-80
2021/01/10 10:53:40;;;;;;;34.45;23.02;;;;;;;17.22;43.99;99523.97;2161364;82;21249;-79
2021/01/10 10:56:41;;;;;;;38.98;25.70;;;;;;;18.25;40.92;99517.70;2160930;82;21261;-81
2021/01/10 10:59:42;;;;;;;31.95;23.80;;;;;;;18.78;38.69;99511.92;2160485;82;21269;-79
2021/01/10 11:02:43;;;;;;;45.43;27.80;;;;;;;18.95;39.56;99506.00;2161128;82;21261;-79
2021/01/10 11:05:44;;;;;;;35.73;23.73;;;;;;;18.38;37.35;99507.45;2161024;82;21127;-79
2021/01/10 11:08:47;;;;;;;35.98;22.80;;;;;;;18.63;38.66;99509.44;2161631;82;21265;-79
2021/01/10 11:11:48;;;;;;;32.65;21.10;;;;;;;18.97;37.03;99505.53;2161532;82;21265;-78
2021/01/10 11:14:49;;;;;;;32.28;19.77;;;;;;;19.14;36.43;99509.78;2162142;82;21138;-79
2021/01/10 11:17:53;;;;;;;26.62;19.92;;;;;;;18.74;35.71;99500.95;2161750;82;21564;-79
2021/01/10 11:20:54;;;;;;;27.77;17.50;;;;;;;18.70;37.44;99505.84;2161790;82;21258;-79
2021/01/10 11:23:55;;;;;;;23.52;15.38;;;;;;;18.82;33.34;99504.84;2161625;82;21285;-78
2021/01/10 11:26:56;;;;;;;23.65;15.93;;;;;;;17.38;34.87;99510.30;2161850;82;21551;-78
2021/01/10 11:29:57;;;;;;;26.02;17.75;;;;;;;17.15;34.58;99512.56;2178805;82;21158;-81
2021/01/10 11:33:04;;;;;;;25.55;17.27;;;;;;;15.11;31.29;99516.36;2179309;81;21276;-80
2021/01/10 11:36:05;;;;;;;35.60;20.45;;;;;;;11.68;33.67;99521.47;2179357;82;21249;-80
2021/01/10 11:39:09;;;;;;;39.63;23.32;;;;;;;8.78;37.61;99530.47;2179313;82;21264;-79
2021/01/10 11:42:13;;;;;;;24.95;17.17;;;;;;;7.02;40.79;99535.33;2179092;81;21117;-79
2021/01/10 11:45:16;;;;;;;23.67;16.37;;;;;;;5.98;43.60;99532.05;2179135;82;21547;-79
2021/01/10 11:48:17;;;;;;;31.85;19.55;;;;;;;5.15;44.72;99535.78;2179423;81;21106;-80
2021/01/10 11:51:18;;;;;;;38.07;23.57;;;;;;;4.56;47.30;99541.72;2179302;81;21310;-79
2021/01/10 11:54:19;;;;;;;33.50;19.60;;;;;;;4.07;48.54;99536.78;2179639;81;21285;-79
2021/01/10 11:57:20;;;;;;;35.97;20.50;;;;;;;3.38;51.14;99535.03;2179529;81;21280;-79
2021/01/10 12:00:22;;;;;;;37.33;22.63;;;;;;;3.38;51.14;99535.03;2179288;81;21539;-79
2021/01/10 12:03:23;;;;;;;41.10;23.17;;;;;;;3.20;51.78;99533.68;2178939;81;21177;-79
2021/01/10 12:06:24;;;;;;;46.80;26.03;;;;;;;3.12;53.43;99533.28;2179227;81;21130;-79
2021/01/10 12:09:25;;;;;;;45.03;26.67;;;;;;;3.00;53.53;99530.06;2179419;81;21162;-79
2021/01/10 12:12:26;;;;;;;36.17;21.90;;;;;;;2.97;54.49;99532.48;2179282;81;21268;-79
2021/01/10 12:15:27;;;;;;;31.30;18.67;;;;;;;2.86;54.82;99533.22;2179623;81;21134;-79
2021/01/10 12:18:28;;;;;;;33.27;19.10;;;;;;;2.72;55.09;99533.28;2179156;81;21179;-80
2021/01/10 12:21:29;;;;;;;43.60;24.00;;;;;;;2.65;56.43;99533.36;2178992;81;21158;-79
2021/01/10 12:24:30;;;;;;;45.00;25.53;;;;;;;2.55;56.57;99543.55;2179285;81;21303;-79
2021/01/10 12:27:31;;;;;;;47.93;27.50;;;;;;;2.46;56.69;99546.02;2179585;81;21284;-78
2021/01/10 12:30:35;;;;;;;38.57;22.63;;;;;;;2.42;57.78;99538.52;2178918;82;21275;-78
2021/01/10 12:33:36;;;;;;;42.15;21.62;;;;;;;2.36;57.89;99539.47;2179414;82;21260;-79
2021/01/10 12:36:38;;;;;;;50.63;28.27;;;;;;;2.35;58.20;99541.97;2179360;81;21110;-79
2021/01/10 12:39:39;;;;;;;41.17;22.07;;;;;;;2.35;58.06;99541.56;2179345;81;21543;-80
2021/01/10 12:42:40;;;;;;;46.70;25.17;;;;;;;2.45;58.39;99538.69;2178703;81;21122;-79
2021/01/10 12:45:41;;;;;;;35.60;17.27;;;;;;;2.56;58.04;99543.14;2178834;81;21292;-79
2021/01/10 12:48:42;;;;;;;45.40;23.23;;;;;;;2.55;57.54;99543.94;2179230;81;21400;-79
2021/01/10 12:51:45;;;;;;;39.10;21.23;;;;;;;2.51;57.63;99539.02;2179015;82;21146;-79
2021/01/10 12:54:46;;;;;;;27.10;15.30;;;;;;;2.46;57.62;99533.14;2179278;82;21244;-79
2021/01/10 12:57:47;;;;;;;26.43;13.27;;;;;;;2.46;57.33;99530.55;2178980;81;21146;-78
2021/01/10 13:00:48;;;;;;;22.50;12.50;;;;;;;2.41;57.25;99533.28;2178969;81;21154;-78
2021/01/10 13:03:49;;;;;;;21.97;12.60;;;;;;;2.31;56.97;99528.43;2178991;81;21169;-79
2021/01/10 13:06:50;;;;;;;22.90;12.83;;;;;;;2.20;57.49;99530.41;2179321;81;21138;-78
2021/01/10 13:09:51;;;;;;;36.27;18.43;;;;;;;2.20;57.72;99521.41;2178994;81;21137;-78
2021/01/10 13:12:52;;;;;;;39.73;21.40;;;;;;;2.25;57.90;99516.10;2178893;81;21166;-79
2021/01/10 13:15:56;;;;;;;27.23;15.20;;;;;;;2.32;57.90;99517.33;2179037;81;21150;-82
2021/01/10 13:18:57;;;;;;;36.63;19.73;;;;;;;2.33;57.93;99517.81;2178896;82;21161;-79
2021/01/10 13:21:58;;;;;;;38.53;20.07;;;;;;;2.35;58.00;99522.24;2179040;81;21146;-79
2021/01/10 13:24:59;;;;;;;31.27;16.30;;;;;;;2.41;58.18;99520.00;2179117;81;21165;-78
2021/01/10 13:28:00;;;;;;;40.33;18.93;;;;;;;2.41;57.66;99520.00;2177741;81;21130;-79
2021/01/10 13:31:02;;;;;;;36.10;17.77;;;;;;;2.42;57.41;99524.35;2161434;82;21747;-79
2021/01/10 13:34:03;;;;;;;43.20;22.70;;;;;;;2.46;57.97;99525.41;2161751;82;21130;-80
2021/01/10 13:37:04;;;;;;;39.73;20.50;;;;;;;2.43;58.06;99531.28;2161870;82;21261;-79
2021/01/10 13:40:05;;;;;;;41.00;21.93;;;;;;;2.44;58.15;99529.59;2161658;82;21253;-78
2021/01/10 13:43:06;;;;;;;43.43;21.47;;;;;;;2.39;57.76;99533.20;2161668;82;21593;-78
2021/01/10 13:46:07;;;;;;;28.27;16.13;;;;;;;2.29;57.77;99536.08;2161628;82;21264;-79
2021/01/10 13:49:08;;;;;;;36.03;19.33;;;;;;;2.18;57.86;99537.17;2161526;82;21273;-78
2021/01/10 13:52:09;;;;;;;29.70;15.63;;;;;;;2.15;58.14;99539.58;2161449;82;21250;-78
2021/01/10 13:55:13;;;;;;;26.13;15.47;;;;;;;2.19;58.16;99533.80;2161639;82;21266;-79
2021/01/10 13:58:14;;;;;;;26.87;16.87;;;;;;;2.19;58.29;99532.51;2161621;82;21256;-79
2021/01/10 14:01:15;;;;;;;33.33;18.57;;;;;;;2.20;57.89;99535.56;2161787;82;21099;-80
2021/01/10 14:04:17;;;;;;;32.70;19.10;;;;;;;2.22;58.13;99540.00;2161766;82;21576;-79
2021/01/10 14:07:18;;;;;;;36.87;20.60;;;;;;;2.23;58.30;99538.31;2161684;82;21277;-79